sensor_id;sensor_type;location;lat;lon;timestamp;P1;durP1;ratioP1;P2;durP2;ratioP2
37455;SDS011;23316;50.718;7.328;2023-04-03T00:00:43;2.75;;;1.42;;
37455;SDS011;23316;50.718;7.328;2023-04-03T00:03:10;3.75;;;1.63;;
37455;SDS011;23316;50.718;7.328;2023-04-03T00:05:37;3.42;;;1.33;;
37455;SDS011;23316;50.718;7.328;2023-04-03T00:08:04;4.22;;;1.60;;
37455;SDS011;23316;50.718;7.328;2023-04-03T00:10:33;5.47;;;1.50;;
37455;SDS011;23316;50.718;7.328;2023-04-03T00:13:02;4.68;;;1.60;;
37455;SDS011;23316;50.718;7.328;2023-04-03T00:15:30;2.42;;;1.40;;
37455;SDS011;23316;50.718;7.328;2023-04-03T00:17:58;3.05;;;1.40;;
37455;SDS011;23316;50.718;7.328;2023-04-03T00:20:25;4.03;;;1.48;;
37455;SDS011;23316;50.718;7.328;2023-04-03T00:22:53;2.97;;;1.35;;
37455;SDS011;23316;50.718;7.328;2023-04-03T00:25:21;5.32;;;1.65;;
37455;SDS011;23316;50.718;7.328;2023-04-03T00:27:48;3.75;;;1.80;;
37455;SDS011;23316;50.718;7.328;2023-04-03T00:30:17;4.25;;;1.80;;
37455;SDS011;23316;50.718;7.328;2023-04-03T00:32:47;2.58;;;1.38;;
37455;SDS011;23316;50.718;7.328;2023-04-03T00:35:15;7.97;;;1.60;;
37455;SDS011;23316;50.718;7.328;2023-04-03T00:37:42;2.08;;;1.42;;
37455;SDS011;23316;50.718;7.328;2023-04-03T00:40:10;2.55;;;1.25;;
37455;SDS011;23316;50.718;7.328;2023-04-03T00:42:39;2.65;;;1.67;;
37455;SDS011;23316;50.718;7.328;2023-04-03T00:45:24;2.85;;;1.27;;
37455;SDS011;23316;50.718;7.328;2023-04-03T00:47:57;2.30;;;1.25;;
37455;SDS011;23316;50.718;7.328;2023-04-03T00:50:26;3.53;;;1.17;;
37455;SDS011;23316;50.718;7.328;2023-04-03T00:52:55;5.10;;;1.45;;
37455;SDS011;23316;50.718;7.328;2023-04-03T00:55:22;4.30;;;1.40;;
37455;SDS011;23316;50.718;7.328;2023-04-03T00:57:50;2.40;;;1.35;;
37455;SDS011;23316;50.718;7.328;2023-04-03T01:00:20;2.08;;;1.38;;
37455;SDS011;23316;50.718;7.328;2023-04-03T01:02:50;2.35;;;1.10;;
37455;SDS011;23316;50.718;7.328;2023-04-03T01:05:18;3.03;;;1.50;;
37455;SDS011;23316;50.718;7.328;2023-04-03T01:07:47;4.63;;;1.40;;
37455;SDS011;23316;50.718;7.328;2023-04-03T01:10:16;3.38;;;1.30;;
37455;SDS011;23316;50.718;7.328;2023-04-03T01:12:45;3.25;;;1.25;;
37455;SDS011;23316;50.718;7.328;2023-04-03T01:15:14;3.33;;;1.48;;
37455;SDS011;23316;50.718;7.328;2023-04-03T01:17:45;2.40;;;1.40;;
37455;SDS011;23316;50.718;7.328;2023-04-03T01:20:23;2.00;;;1.20;;
37455;SDS011;23316;50.718;7.328;2023-04-03T01:23:10;3.00;;;1.45;;
37455;SDS011;23316;50.718;7.328;2023-04-03T01:25:48;5.75;;;1.33;;
37455;SDS011;23316;50.718;7.328;2023-04-03T01:28:19;2.95;;;1.55;;
37455;SDS011;23316;50.718;7.328;2023-04-03T01:30:48;3.22;;;1.23;;
37455;SDS011;23316;50.718;7.328;2023-04-03T01:33:24;2.53;;;1.33;;
37455;SDS011;23316;50.718;7.328;2023-04-03T01:35:51;3.25;;;1.40;;
37455;SDS011;23316;50.718;7.328;2023-04-03T01:38:18;3.42;;;1.35;;
37455;SDS011;23316;50.718;7.328;2023-04-03T01:40:46;3.13;;;1.48;;
37455;SDS011;23316;50.718;7.328;2023-04-03T01:43:13;3.63;;;1.38;;
37455;SDS011;23316;50.718;7.328;2023-04-03T01:45:41;2.08;;;1.35;;
37455;SDS011;23316;50.718;7.328;2023-04-03T01:48:08;2.65;;;1.50;;
37455;SDS011;23316;50.718;7.328;2023-04-03T01:50:36;4.40;;;1.60;;
37455;SDS011;23316;50.718;7.328;2023-04-03T01:53:04;3.22;;;1.20;;
37455;SDS011;23316;50.718;7.328;2023-04-03T01:55:31;3.08;;;1.15;;
37455;SDS011;23316;50.718;7.328;2023-04-03T01:57:58;2.65;;;1.38;;
37455;SDS011;23316;50.718;7.328;2023-04-03T02:00:25;2.67;;;1.40;;
37455;SDS011;23316;50.718;7.328;2023-04-03T02:02:53;3.25;;;1.50;;
37455;SDS011;23316;50.718;7.328;2023-04-03T02:05:20;3.97;;;1.13;;
37455;SDS011;23316;50.718;7.328;2023-04-03T02:07:49;3.00;;;1.33;;
37455;SDS011;23316;50.718;7.328;2023-04-03T02:10:16;2.30;;;1.42;;
37455;SDS011;23316;50.718;7.328;2023-04-03T02:12:43;4.28;;;1.30;;
37455;SDS011;23316;50.718;7.328;2023-04-03T02:15:11;2.25;;;1.30;;
37455;SDS011;23316;50.718;7.328;2023-04-03T02:17:38;3.42;;;1.25;;
37455;SDS011;23316;50.718;7.328;2023-04-03T02:20:06;5.43;;;1.38;;
37455;SDS011;23316;50.718;7.328;2023-04-03T02:22:34;5.53;;;2.30;;
37455;SDS011;23316;50.718;7.328;2023-04-03T02:25:03;3.65;;;1.60;;
37455;SDS011;23316;50.718;7.328;2023-04-03T02:27:30;3.58;;;1.50;;
37455;SDS011;23316;50.718;7.328;2023-04-03T02:29:58;4.95;;;1.88;;
37455;SDS011;23316;50.718;7.328;2023-04-03T02:32:25;2.05;;;1.40;;
37455;SDS011;23316;50.718;7.328;2023-04-03T02:34:52;3.08;;;1.50;;
37455;SDS011;23316;50.718;7.328;2023-04-03T02:37:19;2.90;;;1.58;;
37455;SDS011;23316;50.718;7.328;2023-04-03T02:39:47;5.25;;;1.75;;
37455;SDS011;23316;50.718;7.328;2023-04-03T02:42:16;7.28;;;1.80;;
37455;SDS011;23316;50.718;7.328;2023-04-03T02:44:43;5.63;;;1.50;;
37455;SDS011;23316;50.718;7.328;2023-04-03T02:47:10;2.70;;;1.33;;
37455;SDS011;23316;50.718;7.328;2023-04-03T02:49:37;3.10;;;1.75;;
37455;SDS011;23316;50.718;7.328;2023-04-03T02:52:05;6.25;;;1.85;;
37455;SDS011;23316;50.718;7.328;2023-04-03T02:54:32;5.03;;;1.85;;
37455;SDS011;23316;50.718;7.328;2023-04-03T02:56:59;3.13;;;1.20;;
37455;SDS011;23316;50.718;7.328;2023-04-03T02:59:28;8.57;;;1.77;;
37455;SDS011;23316;50.718;7.328;2023-04-03T03:01:55;8.40;;;1.50;;
37455;SDS011;23316;50.718;7.328;2023-04-03T03:04:22;2.95;;;1.42;;
37455;SDS011;23316;50.718;7.328;2023-04-03T03:06:50;5.95;;;1.55;;
37455;SDS011;23316;50.718;7.328;2023-04-03T03:09:17;3.80;;;1.48;;
37455;SDS011;23316;50.718;7.328;2023-04-03T03:11:45;3.80;;;1.60;;
37455;SDS011;23316;50.718;7.328;2023-04-03T03:14:12;2.75;;;2.08;;
37455;SDS011;23316;50.718;7.328;2023-04-03T03:16:40;5.30;;;1.55;;
37455;SDS011;23316;50.718;7.328;2023-04-03T03:19:08;5.97;;;1.70;;
37455;SDS011;23316;50.718;7.328;2023-04-03T03:21:35;4.45;;;1.42;;
37455;SDS011;23316;50.718;7.328;2023-04-03T03:24:03;5.68;;;1.50;;
37455;SDS011;23316;50.718;7.328;2023-04-03T03:26:30;7.45;;;1.73;;
37455;SDS011;23316;50.718;7.328;2023-04-03T03:28:58;6.25;;;1.90;;
37455;SDS011;23316;50.718;7.328;2023-04-03T03:31:25;3.97;;;1.70;;
37455;SDS011;23316;50.718;7.328;2023-04-03T03:33:54;4.07;;;1.55;;
37455;SDS011;23316;50.718;7.328;2023-04-03T03:36:21;3.72;;;1.70;;
37455;SDS011;23316;50.718;7.328;2023-04-03T03:38:48;2.65;;;1.58;;
37455;SDS011;23316;50.718;7.328;2023-04-03T03:41:15;4.50;;;1.83;;
37455;SDS011;23316;50.718;7.328;2023-04-03T03:43:42;5.75;;;2.10;;
37455;SDS011;23316;50.718;7.328;2023-04-03T03:46:10;4.97;;;1.50;;
37455;SDS011;23316;50.718;7.328;2023-04-03T03:48:37;5.47;;;1.67;;
37455;SDS011;23316;50.718;7.328;2023-04-03T03:51:06;5.10;;;1.77;;
37455;SDS011;23316;50.718;7.328;2023-04-03T03:53:33;5.25;;;1.98;;
37455;SDS011;23316;50.718;7.328;2023-04-03T03:56:00;6.82;;;2.08;;
37455;SDS011;23316;50.718;7.328;2023-04-03T03:58:28;3.85;;;1.40;;
37455;SDS011;23316;50.718;7.328;2023-04-03T04:00:55;5.78;;;1.75;;
37455;SDS011;23316;50.718;7.328;2023-04-03T04:03:22;5.70;;;1.45;;
37455;SDS011;23316;50.718;7.328;2023-04-03T04:05:50;6.18;;;1.52;;
37455;SDS011;23316;50.718;7.328;2023-04-03T04:08:18;6.18;;;1.58;;
37455;SDS011;23316;50.718;7.328;2023-04-03T04:10:46;3.88;;;1.50;;
37455;SDS011;23316;50.718;7.328;2023-04-03T04:13:13;5.32;;;1.42;;
37455;SDS011;23316;50.718;7.328;2023-04-03T04:15:40;3.83;;;1.80;;
37455;SDS011;23316;50.718;7.328;2023-04-03T04:18:08;3.42;;;1.50;;
37455;SDS011;23316;50.718;7.328;2023-04-03T04:20:35;5.07;;;1.48;;
37455;SDS011;23316;50.718;7.328;2023-04-03T04:23:02;5.00;;;1.23;;
37455;SDS011;23316;50.718;7.328;2023-04-03T04:25:31;4.72;;;1.38;;
37455;SDS011;23316;50.718;7.328;2023-04-03T04:27:59;3.60;;;1.48;;
37455;SDS011;23316;50.718;7.328;2023-04-03T04:30:26;2.00;;;1.20;;
37455;SDS011;23316;50.718;7.328;2023-04-03T04:32:53;5.40;;;1.30;;
37455;SDS011;23316;50.718;7.328;2023-04-03T04:35:21;3.33;;;1.33;;
37455;SDS011;23316;50.718;7.328;2023-04-03T04:37:48;4.78;;;1.30;;
37455;SDS011;23316;50.718;7.328;2023-04-03T04:40:16;5.60;;;1.30;;
37455;SDS011;23316;50.718;7.328;2023-04-03T04:42:45;5.20;;;1.60;;
37455;SDS011;23316;50.718;7.328;2023-04-03T04:45:12;3.65;;;1.05;;
37455;SDS011;23316;50.718;7.328;2023-04-03T04:47:40;5.75;;;1.30;;
37455;SDS011;23316;50.718;7.328;2023-04-03T04:50:09;18.40;;;5.50;;
37455;SDS011;23316;50.718;7.328;2023-04-03T04:52:37;10.38;;;4.05;;
37455;SDS011;23316;50.718;7.328;2023-04-03T04:55:04;6.68;;;2.28;;
37455;SDS011;23316;50.718;7.328;2023-04-03T04:57:32;4.35;;;2.05;;
37455;SDS011;23316;50.718;7.328;2023-04-03T05:00:02;4.40;;;1.38;;
37455;SDS011;23316;50.718;7.328;2023-04-03T05:02:30;4.20;;;1.30;;
37455;SDS011;23316;50.718;7.328;2023-04-03T05:04:57;2.67;;;1.10;;
37455;SDS011;23316;50.718;7.328;2023-04-03T05:07:24;6.00;;;1.10;;
37455;SDS011;23316;50.718;7.328;2023-04-03T05:09:51;3.42;;;1.42;;
37455;SDS011;23316;50.718;7.328;2023-04-03T05:12:19;6.55;;;3.22;;
37455;SDS011;23316;50.718;7.328;2023-04-03T05:14:46;11.52;;;3.75;;
37455;SDS011;23316;50.718;7.328;2023-04-03T05:17:15;4.03;;;1.75;;
37455;SDS011;23316;50.718;7.328;2023-04-03T05:19:42;4.05;;;1.63;;
37455;SDS011;23316;50.718;7.328;2023-04-03T05:22:09;4.00;;;1.65;;
37455;SDS011;23316;50.718;7.328;2023-04-03T05:24:36;2.33;;;0.98;;
37455;SDS011;23316;50.718;7.328;2023-04-03T05:27:04;2.60;;;1.27;;
37455;SDS011;23316;50.718;7.328;2023-04-03T05:29:31;2.53;;;1.10;;
37455;SDS011;23316;50.718;7.328;2023-04-03T05:31:58;3.95;;;1.13;;
37455;SDS011;23316;50.718;7.328;2023-04-03T05:34:27;3.33;;;1.02;;
37455;SDS011;23316;50.718;7.328;2023-04-03T05:36:54;4.15;;;1.30;;
37455;SDS011;23316;50.718;7.328;2023-04-03T05:39:21;3.80;;;1.30;;
37455;SDS011;23316;50.718;7.328;2023-04-03T05:41:49;3.67;;;1.35;;
37455;SDS011;23316;50.718;7.328;2023-04-03T05:44:17;3.38;;;0.93;;
37455;SDS011;23316;50.718;7.328;2023-04-03T05:46:45;5.57;;;1.50;;
37455;SDS011;23316;50.718;7.328;2023-04-03T05:49:12;3.83;;;1.20;;
37455;SDS011;23316;50.718;7.328;2023-04-03T05:51:41;2.72;;;1.02;;
37455;SDS011;23316;50.718;7.328;2023-04-03T05:54:11;3.88;;;1.15;;
37455;SDS011;23316;50.718;7.328;2023-04-03T05:56:42;3.50;;;1.30;;
37455;SDS011;23316;50.718;7.328;2023-04-03T05:59:10;5.85;;;1.45;;
37455;SDS011;23316;50.718;7.328;2023-04-03T06:01:38;4.68;;;1.70;;
37455;SDS011;23316;50.718;7.328;2023-04-03T06:04:06;9.98;;;2.53;;
37455;SDS011;23316;50.718;7.328;2023-04-03T06:06:45;32.33;;;4.80;;
37455;SDS011;23316;50.718;7.328;2023-04-03T06:09:14;61.65;;;9.00;;
37455;SDS011;23316;50.718;7.328;2023-04-03T06:11:42;46.13;;;6.40;;
37455;SDS011;23316;50.718;7.328;2023-04-03T06:14:10;53.17;;;9.00;;
37455;SDS011;23316;50.718;7.328;2023-04-03T06:16:38;12.27;;;3.45;;
37455;SDS011;23316;50.718;7.328;2023-04-03T06:19:05;9.98;;;2.58;;
37455;SDS011;23316;50.718;7.328;2023-04-03T06:21:33;6.75;;;1.77;;
37455;SDS011;23316;50.718;7.328;2023-04-03T06:24:02;4.68;;;1.40;;
37455;SDS011;23316;50.718;7.328;2023-04-03T06:26:30;10.15;;;1.58;;
37455;SDS011;23316;50.718;7.328;2023-04-03T06:28:58;5.35;;;1.40;;
37455;SDS011;23316;50.718;7.328;2023-04-03T06:31:26;3.85;;;1.27;;
37455;SDS011;23316;50.718;7.328;2023-04-03T06:33:53;7.07;;;1.73;;
37455;SDS011;23316;50.718;7.328;2023-04-03T06:36:20;5.93;;;1.98;;
37455;SDS011;23316;50.718;7.328;2023-04-03T06:38:48;7.38;;;1.58;;
37455;SDS011;23316;50.718;7.328;2023-04-03T06:41:16;7.15;;;1.52;;
37455;SDS011;23316;50.718;7.328;2023-04-03T06:43:44;3.20;;;1.25;;
37455;SDS011;23316;50.718;7.328;2023-04-03T06:46:13;10.27;;;1.77;;
37455;SDS011;23316;50.718;7.328;2023-04-03T06:48:42;5.05;;;1.40;;
37455;SDS011;23316;50.718;7.328;2023-04-03T06:51:20;6.18;;;1.90;;
37455;SDS011;23316;50.718;7.328;2023-04-03T06:53:48;4.47;;;1.33;;
37455;SDS011;23316;50.718;7.328;2023-04-03T06:56:18;22.02;;;7.28;;
37455;SDS011;23316;50.718;7.328;2023-04-03T06:58:46;18.55;;;7.05;;
37455;SDS011;23316;50.718;7.328;2023-04-03T07:01:14;8.70;;;3.25;;
37455;SDS011;23316;50.718;7.328;2023-04-03T07:03:43;10.88;;;2.20;;
37455;SDS011;23316;50.718;7.328;2023-04-03T07:06:11;8.10;;;1.88;;
37455;SDS011;23316;50.718;7.328;2023-04-03T07:08:39;4.72;;;1.67;;
37455;SDS011;23316;50.718;7.328;2023-04-03T07:11:07;6.88;;;1.60;;
37455;SDS011;23316;50.718;7.328;2023-04-03T07:13:37;3.63;;;1.50;;
37455;SDS011;23316;50.718;7.328;2023-04-03T07:16:05;6.80;;;1.35;;
37455;SDS011;23316;50.718;7.328;2023-04-03T07:18:33;5.07;;;1.35;;
37455;SDS011;23316;50.718;7.328;2023-04-03T07:21:00;5.82;;;1.17;;
37455;SDS011;23316;50.718;7.328;2023-04-03T07:23:28;6.20;;;1.60;;
37455;SDS011;23316;50.718;7.328;2023-04-03T07:25:55;6.40;;;1.63;;
37455;SDS011;23316;50.718;7.328;2023-04-03T07:28:22;5.85;;;1.50;;
37455;SDS011;23316;50.718;7.328;2023-04-03T07:30:52;6.28;;;1.33;;
37455;SDS011;23316;50.718;7.328;2023-04-03T07:33:21;7.53;;;1.60;;
37455;SDS011;23316;50.718;7.328;2023-04-03T07:35:49;3.97;;;1.65;;
37455;SDS011;23316;50.718;7.328;2023-04-03T07:38:16;5.63;;;1.60;;
37455;SDS011;23316;50.718;7.328;2023-04-03T07:40:45;5.78;;;1.70;;
37455;SDS011;23316;50.718;7.328;2023-04-03T07:43:13;7.13;;;1.63;;
37455;SDS011;23316;50.718;7.328;2023-04-03T07:45:41;4.15;;;1.33;;
37455;SDS011;23316;50.718;7.328;2023-04-03T07:48:10;6.25;;;1.27;;
37455;SDS011;23316;50.718;7.328;2023-04-03T07:50:39;6.13;;;1.55;;
37455;SDS011;23316;50.718;7.328;2023-04-03T07:53:07;4.50;;;1.48;;
37455;SDS011;23316;50.718;7.328;2023-04-03T07:55:34;5.72;;;1.50;;
37455;SDS011;23316;50.718;7.328;2023-04-03T07:58:08;7.32;;;2.10;;
37455;SDS011;23316;50.718;7.328;2023-04-03T08:00:36;7.90;;;1.50;;
37455;SDS011;23316;50.718;7.328;2023-04-03T08:03:03;5.88;;;1.88;;
37455;SDS011;23316;50.718;7.328;2023-04-03T08:05:34;6.57;;;1.80;;
37455;SDS011;23316;50.718;7.328;2023-04-03T08:08:03;6.32;;;1.65;;
37455;SDS011;23316;50.718;7.328;2023-04-03T08:10:30;3.03;;;1.10;;
37455;SDS011;23316;50.718;7.328;2023-04-03T08:12:58;9.27;;;1.48;;
37455;SDS011;23316;50.718;7.328;2023-04-03T08:15:25;5.00;;;1.50;;
37455;SDS011;23316;50.718;7.328;2023-04-03T08:17:53;6.97;;;1.88;;
37455;SDS011;23316;50.718;7.328;2023-04-03T08:20:20;7.00;;;1.65;;
37455;SDS011;23316;50.718;7.328;2023-04-03T08:22:49;7.85;;;1.92;;
37455;SDS011;23316;50.718;7.328;2023-04-03T08:25:16;6.85;;;1.42;;
37455;SDS011;23316;50.718;7.328;2023-04-03T08:27:44;9.88;;;1.40;;
37455;SDS011;23316;50.718;7.328;2023-04-03T08:30:11;4.88;;;1.50;;
37455;SDS011;23316;50.718;7.328;2023-04-03T08:32:39;4.68;;;1.73;;
37455;SDS011;23316;50.718;7.328;2023-04-03T08:35:08;8.13;;;1.98;;
37455;SDS011;23316;50.718;7.328;2023-04-03T08:37:36;8.63;;;1.90;;
37455;SDS011;23316;50.718;7.328;2023-04-03T08:40:07;8.20;;;2.15;;
37455;SDS011;23316;50.718;7.328;2023-04-03T08:42:41;5.25;;;1.70;;
37455;SDS011;23316;50.718;7.328;2023-04-03T08:45:19;6.40;;;1.95;;
37455;SDS011;23316;50.718;7.328;2023-04-03T08:47:55;12.88;;;1.52;;
37455;SDS011;23316;50.718;7.328;2023-04-03T08:50:29;8.05;;;1.60;;
37455;SDS011;23316;50.718;7.328;2023-04-03T08:53:00;8.75;;;1.70;;
37455;SDS011;23316;50.718;7.328;2023-04-03T08:55:33;3.28;;;1.27;;
37455;SDS011;23316;50.718;7.328;2023-04-03T08:58:06;3.92;;;1.15;;
37455;SDS011;23316;50.718;7.328;2023-04-03T09:00:40;3.53;;;1.23;;
37455;SDS011;23316;50.718;7.328;2023-04-03T09:03:11;4.78;;;1.40;;
37455;SDS011;23316;50.718;7.328;2023-04-03T09:05:42;4.68;;;1.48;;
37455;SDS011;23316;50.718;7.328;2023-04-03T09:08:16;6.38;;;1.50;;
37455;SDS011;23316;50.718;7.328;2023-04-03T09:10:55;7.95;;;1.45;;
37455;SDS011;23316;50.718;7.328;2023-04-03T09:13:33;5.50;;;1.60;;
37455;SDS011;23316;50.718;7.328;2023-04-03T09:16:12;6.15;;;1.35;;
37455;SDS011;23316;50.718;7.328;2023-04-03T09:18:52;9.75;;;1.83;;
37455;SDS011;23316;50.718;7.328;2023-04-03T09:21:25;4.45;;;1.50;;
37455;SDS011;23316;50.718;7.328;2023-04-03T09:23:58;4.50;;;1.83;;
37455;SDS011;23316;50.718;7.328;2023-04-03T09:26:30;5.22;;;1.75;;
37455;SDS011;23316;50.718;7.328;2023-04-03T09:29:04;9.73;;;1.90;;
37455;SDS011;23316;50.718;7.328;2023-04-03T09:31:35;3.97;;;1.65;;
37455;SDS011;23316;50.718;7.328;2023-04-03T09:34:06;5.03;;;1.20;;
37455;SDS011;23316;50.718;7.328;2023-04-03T09:36:41;6.00;;;1.45;;
37455;SDS011;23316;50.718;7.328;2023-04-03T09:39:11;7.57;;;1.48;;
37455;SDS011;23316;50.718;7.328;2023-04-03T09:41:42;4.60;;;1.20;;
37455;SDS011;23316;50.718;7.328;2023-04-03T09:44:21;9.02;;;2.45;;
37455;SDS011;23316;50.718;7.328;2023-04-03T09:46:49;14.13;;;2.80;;
37455;SDS011;23316;50.718;7.328;2023-04-03T09:49:17;4.75;;;1.02;;
37455;SDS011;23316;50.718;7.328;2023-04-03T09:51:45;20.15;;;2.67;;
37455;SDS011;23316;50.718;7.328;2023-04-03T09:54:24;7.13;;;1.73;;
37455;SDS011;23316;50.718;7.328;2023-04-03T09:56:57;6.15;;;1.75;;
37455;SDS011;23316;50.718;7.328;2023-04-03T10:01:58;5.00;;;1.40;;
37455;SDS011;23316;50.718;7.328;2023-04-03T10:04:36;4.15;;;1.13;;
37455;SDS011;23316;50.718;7.328;2023-04-03T10:07:25;4.28;;;1.48;;
37455;SDS011;23316;50.718;7.328;2023-04-03T10:09:54;6.13;;;1.77;;
37455;SDS011;23316;50.718;7.328;2023-04-03T10:12:24;3.50;;;1.05;;
37455;SDS011;23316;50.718;7.328;2023-04-03T10:14:55;3.38;;;1.15;;
37455;SDS011;23316;50.718;7.328;2023-04-03T10:17:25;2.30;;;1.05;;
37455;SDS011;23316;50.718;7.328;2023-04-03T10:20:18;2.83;;;0.90;;
37455;SDS011;23316;50.718;7.328;2023-04-03T10:23:00;5.35;;;1.00;;
37455;SDS011;23316;50.718;7.328;2023-04-03T10:25:38;8.80;;;1.30;;
37455;SDS011;23316;50.718;7.328;2023-04-03T10:28:12;3.83;;;0.77;;
37455;SDS011;23316;50.718;7.328;2023-04-03T10:30:47;4.38;;;0.90;;
37455;SDS011;23316;50.718;7.328;2023-04-03T10:36:21;4.18;;;0.93;;
37455;SDS011;23316;50.718;7.328;2023-04-03T10:38:57;2.83;;;0.88;;
37455;SDS011;23316;50.718;7.328;2023-04-03T10:41:34;4.22;;;1.05;;
37455;SDS011;23316;50.718;7.328;2023-04-03T10:44:16;2.58;;;0.95;;
37455;SDS011;23316;50.718;7.328;2023-04-03T10:46:55;2.97;;;0.85;;
37455;SDS011;23316;50.718;7.328;2023-04-03T10:49:32;4.85;;;1.00;;
37455;SDS011;23316;50.718;7.328;2023-04-03T10:52:13;4.10;;;1.10;;
37455;SDS011;23316;50.718;7.328;2023-04-03T10:54:47;2.50;;;1.10;;
37455;SDS011;23316;50.718;7.328;2023-04-03T10:57:23;4.85;;;1.20;;
37455;SDS011;23316;50.718;7.328;2023-04-03T10:59:55;8.07;;;1.10;;
37455;SDS011;23316;50.718;7.328;2023-04-03T11:02:27;3.35;;;0.90;;
37455;SDS011;23316;50.718;7.328;2023-04-03T11:04:58;3.55;;;1.05;;
37455;SDS011;23316;50.718;7.328;2023-04-03T11:07:28;2.67;;;1.00;;
37455;SDS011;23316;50.718;7.328;2023-04-03T11:10:00;3.22;;;0.90;;
37455;SDS011;23316;50.718;7.328;2023-04-03T11:12:36;9.00;;;1.10;;
37455;SDS011;23316;50.718;7.328;2023-04-03T11:15:12;2.95;;;0.88;;
37455;SDS011;23316;50.718;7.328;2023-04-03T11:17:43;2.67;;;1.00;;
37455;SDS011;23316;50.718;7.328;2023-04-03T11:20:17;4.00;;;1.00;;
37455;SDS011;23316;50.718;7.328;2023-04-03T11:22:47;2.22;;;1.27;;
37455;SDS011;23316;50.718;7.328;2023-04-03T11:25:19;2.88;;;1.15;;
37455;SDS011;23316;50.718;7.328;2023-04-03T11:27:50;3.95;;;1.27;;
37455;SDS011;23316;50.718;7.328;2023-04-03T11:30:24;13.88;;;2.75;;
37455;SDS011;23316;50.718;7.328;2023-04-03T11:33:03;21.10;;;3.97;;
37455;SDS011;23316;50.718;7.328;2023-04-03T11:35:42;5.22;;;0.98;;
37455;SDS011;23316;50.718;7.328;2023-04-03T11:38:10;3.20;;;0.90;;
37455;SDS011;23316;50.718;7.328;2023-04-03T11:43:18;3.45;;;1.02;;
37455;SDS011;23316;50.718;7.328;2023-04-03T11:45:53;3.28;;;1.30;;
37455;SDS011;23316;50.718;7.328;2023-04-03T11:48:42;2.05;;;0.90;;
37455;SDS011;23316;50.718;7.328;2023-04-03T12:12:41;4.20;;;0.90;;
37455;SDS011;23316;50.718;7.328;2023-04-03T12:15:12;7.30;;;0.90;;
37455;SDS011;23316;50.718;7.328;2023-04-03T12:17:51;3.08;;;0.90;;
37455;SDS011;23316;50.718;7.328;2023-04-03T12:23:24;2.00;;;1.00;;
37455;SDS011;23316;50.718;7.328;2023-04-03T12:25:59;6.93;;;1.15;;
37455;SDS011;23316;50.718;7.328;2023-04-03T12:28:34;2.45;;;0.80;;
37455;SDS011;23316;50.718;7.328;2023-04-03T12:31:05;3.42;;;0.90;;
37455;SDS011;23316;50.718;7.328;2023-04-03T12:33:42;3.72;;;1.30;;
37455;SDS011;23316;50.718;7.328;2023-04-03T12:36:26;2.15;;;0.95;;
37455;SDS011;23316;50.718;7.328;2023-04-03T12:39:10;3.00;;;1.08;;
37455;SDS011;23316;50.718;7.328;2023-04-03T12:41:49;3.10;;;1.20;;
37455;SDS011;23316;50.718;7.328;2023-04-03T12:44:31;3.30;;;1.13;;
37455;SDS011;23316;50.718;7.328;2023-04-03T12:47:14;5.57;;;1.33;;
37455;SDS011;23316;50.718;7.328;2023-04-03T12:49:50;2.55;;;1.08;;
37455;SDS011;23316;50.718;7.328;2023-04-03T12:52:22;6.75;;;1.15;;
37455;SDS011;23316;50.718;7.328;2023-04-03T12:54:58;2.33;;;1.02;;
37455;SDS011;23316;50.718;7.328;2023-04-03T12:57:29;5.03;;;1.48;;
37455;SDS011;23316;50.718;7.328;2023-04-03T12:59:58;3.08;;;1.20;;
37455;SDS011;23316;50.718;7.328;2023-04-03T13:02:26;2.50;;;1.02;;
37455;SDS011;23316;50.718;7.328;2023-04-03T13:04:56;5.60;;;1.10;;
37455;SDS011;23316;50.718;7.328;2023-04-03T13:07:27;2.35;;;0.80;;
37455;SDS011;23316;50.718;7.328;2023-04-03T13:09:58;2.92;;;1.30;;
37455;SDS011;23316;50.718;7.328;2023-04-03T13:12:27;7.90;;;1.92;;
37455;SDS011;23316;50.718;7.328;2023-04-03T13:14:55;5.07;;;1.20;;
37455;SDS011;23316;50.718;7.328;2023-04-03T13:17:25;5.38;;;1.40;;
37455;SDS011;23316;50.718;7.328;2023-04-03T13:19:54;4.40;;;1.02;;
37455;SDS011;23316;50.718;7.328;2023-04-03T13:22:36;2.03;;;0.93;;
37455;SDS011;23316;50.718;7.328;2023-04-03T13:25:09;1.97;;;0.90;;
37455;SDS011;23316;50.718;7.328;2023-04-03T13:27:39;3.65;;;1.05;;
37455;SDS011;23316;50.718;7.328;2023-04-03T13:30:17;5.53;;;1.02;;
37455;SDS011;23316;50.718;7.328;2023-04-03T13:32:47;2.97;;;1.05;;
37455;SDS011;23316;50.718;7.328;2023-04-03T13:35:26;3.70;;;1.17;;
37455;SDS011;23316;50.718;7.328;2023-04-03T13:38:00;4.10;;;1.25;;
37455;SDS011;23316;50.718;7.328;2023-04-03T13:40:31;2.65;;;1.00;;
37455;SDS011;23316;50.718;7.328;2023-04-03T13:42:59;2.33;;;0.98;;
37455;SDS011;23316;50.718;7.328;2023-04-03T13:45:29;3.15;;;1.30;;
37455;SDS011;23316;50.718;7.328;2023-04-03T13:48:08;8.05;;;1.50;;
37455;SDS011;23316;50.718;7.328;2023-04-03T13:50:52;3.88;;;1.35;;
37455;SDS011;23316;50.718;7.328;2023-04-03T13:53:22;5.75;;;1.40;;
37455;SDS011;23316;50.718;7.328;2023-04-03T13:55:55;5.95;;;1.50;;
37455;SDS011;23316;50.718;7.328;2023-04-03T13:58:25;6.80;;;1.40;;
37455;SDS011;23316;50.718;7.328;2023-04-03T14:00:54;4.35;;;1.25;;
37455;SDS011;23316;50.718;7.328;2023-04-03T14:03:23;7.10;;;1.00;;
37455;SDS011;23316;50.718;7.328;2023-04-03T14:05:55;2.97;;;1.17;;
37455;SDS011;23316;50.718;7.328;2023-04-03T14:08:23;2.70;;;1.20;;
37455;SDS011;23316;50.718;7.328;2023-04-03T14:10:50;2.90;;;1.08;;
37455;SDS011;23316;50.718;7.328;2023-04-03T14:13:18;2.70;;;0.82;;
37455;SDS011;23316;50.718;7.328;2023-04-03T14:15:47;4.15;;;1.35;;
37455;SDS011;23316;50.718;7.328;2023-04-03T14:18:20;5.25;;;1.40;;
37455;SDS011;23316;50.718;7.328;2023-04-03T14:20:48;2.42;;;0.90;;
37455;SDS011;23316;50.718;7.328;2023-04-03T14:23:17;7.22;;;1.70;;
37455;SDS011;23316;50.718;7.328;2023-04-03T14:25:44;1.52;;;0.77;;
37455;SDS011;23316;50.718;7.328;2023-04-03T14:28:14;3.88;;;1.30;;
37455;SDS011;23316;50.718;7.328;2023-04-03T14:30:43;2.90;;;1.00;;
37455;SDS011;23316;50.718;7.328;2023-04-03T14:33:12;2.08;;;1.00;;
37455;SDS011;23316;50.718;7.328;2023-04-03T14:35:42;3.88;;;1.02;;
37455;SDS011;23316;50.718;7.328;2023-04-03T14:38:20;2.72;;;1.20;;
37455;SDS011;23316;50.718;7.328;2023-04-03T14:40:51;2.67;;;1.10;;
37455;SDS011;23316;50.718;7.328;2023-04-03T14:43:19;2.13;;;1.08;;
37455;SDS011;23316;50.718;7.328;2023-04-03T14:45:46;2.45;;;1.10;;
37455;SDS011;23316;50.718;7.328;2023-04-03T14:48:15;3.63;;;1.38;;
37455;SDS011;23316;50.718;7.328;2023-04-03T14:50:46;3.38;;;1.10;;
37455;SDS011;23316;50.718;7.328;2023-04-03T14:53:13;3.15;;;1.20;;
37455;SDS011;23316;50.718;7.328;2023-04-03T14:55:44;3.15;;;1.10;;
37455;SDS011;23316;50.718;7.328;2023-04-03T14:58:14;2.75;;;1.02;;
37455;SDS011;23316;50.718;7.328;2023-04-03T15:00:42;2.33;;;1.10;;
37455;SDS011;23316;50.718;7.328;2023-04-03T15:03:14;3.65;;;1.48;;
37455;SDS011;23316;50.718;7.328;2023-04-03T15:05:42;2.50;;;0.95;;
37455;SDS011;23316;50.718;7.328;2023-04-03T15:08:18;3.53;;;1.33;;
37455;SDS011;23316;50.718;7.328;2023-04-03T15:10:48;2.47;;;1.02;;
37455;SDS011;23316;50.718;7.328;2023-04-03T15:13:18;2.35;;;0.82;;
37455;SDS011;23316;50.718;7.328;2023-04-03T15:15:46;2.85;;;1.10;;
37455;SDS011;23316;50.718;7.328;2023-04-03T15:18:15;3.33;;;1.10;;
37455;SDS011;23316;50.718;7.328;2023-04-03T15:20:45;4.60;;;0.90;;
37455;SDS011;23316;50.718;7.328;2023-04-03T15:23:13;2.00;;;1.02;;
37455;SDS011;23316;50.718;7.328;2023-04-03T15:25:42;6.13;;;1.33;;
37455;SDS011;23316;50.718;7.328;2023-04-03T15:28:13;8.00;;;1.38;;
37455;SDS011;23316;50.718;7.328;2023-04-03T15:30:45;2.00;;;0.93;;
37455;SDS011;23316;50.718;7.328;2023-04-03T15:33:12;3.38;;;0.93;;
37455;SDS011;23316;50.718;7.328;2023-04-03T15:35:41;1.98;;;0.90;;
37455;SDS011;23316;50.718;7.328;2023-04-03T15:38:08;3.28;;;0.98;;